sensor_id;sensor_type;location;lat;lon;timestamp;pressure;altitude;pressure_sealevel;temperature;humidity
71915;BME280;60387;49.994;14.660;2023-04-28T00:00:56;97880.84;;;11.64;35.91
71915;BME280;60387;49.994;14.660;2023-04-28T00:03:29;97879.22;;;11.63;35.49
71915;BME280;60387;49.994;14.660;2023-04-28T00:06:03;97882.31;;;11.56;36.09
71915;BME280;60387;49.994;14.660;2023-04-28T00:08:36;97878.25;;;11.59;35.50
71915;BME280;60387;49.994;14.660;2023-04-28T00:11:10;97870.50;;;11.52;35.31
71915;BME280;60387;49.994;14.660;2023-04-28T00:13:43;97881.84;;;11.54;35.24
71915;BME280;60387;49.994;14.660;2023-04-28T00:16:16;97872.72;;;11.50;35.19
71915;BME280;60387;49.994;14.660;2023-04-28T00:18:49;97878.22;;;11.45;35.46
71915;BME280;60387;49.994;14.660;2023-04-28T00:21:23;97879.22;;;11.49;36.34
71915;BME280;60387;49.994;14.660;2023-04-28T00:23:56;97869.47;;;11.48;35.64
71915;BME280;60387;49.994;14.660;2023-04-28T00:26:29;97873.78;;;11.49;36.28
71915;BME280;60387;49.994;14.660;2023-04-28T00:29:02;97874.41;;;11.46;37.24
71915;BME280;60387;49.994;14.660;2023-04-28T00:31:36;97875.72;;;11.49;36.59
71915;BME280;60387;49.994;14.660;2023-04-28T00:34:09;97863.75;;;11.50;37.38
71915;BME280;60387;49.994;14.660;2023-04-28T00:36:42;97863.75;;;11.50;36.84
71915;BME280;60387;49.994;14.660;2023-04-28T00:39:15;97863.47;;;11.51;36.79
71915;BME280;60387;49.994;14.660;2023-04-28T00:41:49;97857.41;;;11.54;36.84
71915;BME280;60387;49.994;14.660;2023-04-28T00:44:22;97854.94;;;11.58;36.82
71915;BME280;60387;49.994;14.660;2023-04-28T00:46:57;97853.72;;;11.64;37.56
71915;BME280;60387;49.994;14.660;2023-04-28T00:49:31;97850.69;;;11.65;37.12
71915;BME280;60387;49.994;14.660;2023-04-28T00:52:05;97845.47;;;11.69;37.17
71915;BME280;60387;49.994;14.660;2023-04-28T00:54:39;97841.63;;;11.70;37.43
71915;BME280;60387;49.994;14.660;2023-04-28T00:57:12;97846.47;;;11.73;37.13
71915;BME280;60387;49.994;14.660;2023-04-28T00:59:45;97843.25;;;11.71;36.98
71915;BME280;60387;49.994;14.660;2023-04-28T01:02:19;97849.88;;;11.78;37.60
71915;BME280;60387;49.994;14.660;2023-04-28T01:04:52;97850.84;;;11.82;37.12
71915;BME280;60387;49.994;14.660;2023-04-28T01:07:26;97840.81;;;11.83;36.64
71915;BME280;60387;49.994;14.660;2023-04-28T01:09:59;97839.41;;;11.85;36.68
71915;BME280;60387;49.994;14.660;2023-04-28T01:12:32;97840.19;;;11.86;36.42
71915;BME280;60387;49.994;14.660;2023-04-28T01:15:06;97835.56;;;11.86;36.41
71915;BME280;60387;49.994;14.660;2023-04-28T01:17:47;97827.53;;;11.81;36.51
71915;BME280;60387;49.994;14.660;2023-04-28T01:20:20;97832.03;;;11.86;36.40
71915;BME280;60387;49.994;14.660;2023-04-28T01:22:54;97840.19;;;11.86;36.27
71915;BME280;60387;49.994;14.660;2023-04-28T01:25:27;97836.50;;;11.82;36.21
71915;BME280;60387;49.994;14.660;2023-04-28T01:28:00;97828.16;;;11.78;35.83
71915;BME280;60387;49.994;14.660;2023-04-28T01:30:33;97826.38;;;11.74;36.46
71915;BME280;60387;49.994;14.660;2023-04-28T01:33:07;97823.47;;;11.70;35.85
71915;BME280;60387;49.994;14.660;2023-04-28T01:35:40;97822.97;;;11.68;36.07
71915;BME280;60387;49.994;14.660;2023-04-28T01:38:13;97830.38;;;11.63;35.80
71915;BME280;60387;49.994;14.660;2023-04-28T01:40:46;97821.94;;;11.64;36.20
71915;BME280;60387;49.994;14.660;2023-04-28T01:43:20;97819.53;;;11.63;36.19
71915;BME280;60387;49.994;14.660;2023-04-28T01:45:53;97822.38;;;11.58;35.63
71915;BME280;60387;49.994;14.660;2023-04-28T01:48:26;97824.56;;;11.56;36.24
71915;BME280;60387;49.994;14.660;2023-04-28T01:51:00;97829.59;;;11.49;35.89
71915;BME280;60387;49.994;14.660;2023-04-28T01:53:33;97824.19;;;11.49;35.62
71915;BME280;60387;49.994;14.660;2023-04-28T01:56:07;97817.75;;;11.45;35.63
71915;BME280;60387;49.994;14.660;2023-04-28T01:58:40;97820.44;;;11.45;36.02
71915;BME280;60387;49.994;14.660;2023-04-28T02:01:13;97816.25;;;11.39;35.93
71915;BME280;60387;49.994;14.660;2023-04-28T02:03:46;97818.78;;;11.35;35.44
71915;BME280;60387;49.994;14.660;2023-04-28T02:06:20;97822.69;;;11.29;35.80
71915;BME280;60387;49.994;14.660;2023-04-28T02:08:53;97808.44;;;11.24;36.37
71915;BME280;60387;49.994;14.660;2023-04-28T02:11:26;97807.63;;;11.23;36.58
71915;BME280;60387;49.994;14.660;2023-04-28T02:13:59;97807.53;;;11.15;36.13
71915;BME280;60387;49.994;14.660;2023-04-28T02:16:33;97823.53;;;11.16;36.00
71915;BME280;60387;49.994;14.660;2023-04-28T02:19:07;97818.88;;;11.17;36.57
71915;BME280;60387;49.994;14.660;2023-04-28T02:21:41;97814.66;;;11.11;36.13
71915;BME280;60387;49.994;14.660;2023-04-28T02:24:14;97816.59;;;11.10;36.72
71915;BME280;60387;49.994;14.660;2023-04-28T02:26:48;97806.94;;;11.04;36.03
71915;BME280;60387;49.994;14.660;2023-04-28T02:29:21;97810.75;;;11.03;35.84
71915;BME280;60387;49.994;14.660;2023-04-28T02:31:54;97804.53;;;11.03;36.32
71915;BME280;60387;49.994;14.660;2023-04-28T02:34:27;97809.94;;;11.03;36.85
71915;BME280;60387;49.994;14.660;2023-04-28T02:37:01;97802.34;;;11.05;36.20
71915;BME280;60387;49.994;14.660;2023-04-28T02:39:34;97803.72;;;11.02;37.17
71915;BME280;60387;49.994;14.660;2023-04-28T02:42:07;97801.44;;;11.09;36.79
71915;BME280;60387;49.994;14.660;2023-04-28T02:44:41;97814.66;;;11.11;37.18
71915;BME280;60387;49.994;14.660;2023-04-28T02:47:14;97814.06;;;11.14;37.29
71915;BME280;60387;49.994;14.660;2023-04-28T02:49:47;97827.63;;;11.14;36.96
71915;BME280;60387;49.994;14.660;2023-04-28T02:52:21;97817.28;;;11.16;37.33
71915;BME280;60387;49.994;14.660;2023-04-28T02:54:54;97818.28;;;11.20;37.14
71915;BME280;60387;49.994;14.660;2023-04-28T02:57:27;97817.97;;;11.21;37.15
71915;BME280;60387;49.994;14.660;2023-04-28T03:00:00;97819.00;;;11.25;37.96
71915;BME280;60387;49.994;14.660;2023-04-28T03:02:34;97818.38;;;11.28;37.17
71915;BME280;60387;49.994;14.660;2023-04-28T03:05:07;97812.94;;;11.28;36.76
71915;BME280;60387;49.994;14.660;2023-04-28T03:07:40;97810.44;;;11.32;37.16
71915;BME280;60387;49.994;14.660;2023-04-28T03:10:14;97818.44;;;11.37;37.28
71915;BME280;60387;49.994;14.660;2023-04-28T03:12:47;97813.66;;;11.34;37.32
71915;BME280;60387;49.994;14.660;2023-04-28T03:15:20;97811.94;;;11.38;37.43
71915;BME280;60387;49.994;14.660;2023-04-28T03:17:54;97818.34;;;11.42;37.37
71915;BME280;60387;49.994;14.660;2023-04-28T03:20:27;97813.56;;;11.39;37.46
71915;BME280;60387;49.994;14.660;2023-04-28T03:23:00;97797.88;;;11.36;37.41
71915;BME280;60387;49.994;14.660;2023-04-28T03:25:33;97786.53;;;11.34;37.31
71915;BME280;60387;49.994;14.660;2023-04-28T03:28:07;97797.88;;;11.36;37.54
71915;BME280;60387;49.994;14.660;2023-04-28T03:30:40;97788.13;;;11.35;37.31
71915;BME280;60387;49.994;14.660;2023-04-28T03:33:13;97771.84;;;11.35;38.13
71915;BME280;60387;49.994;14.660;2023-04-28T03:35:46;97764.53;;;11.35;37.81
71915;BME280;60387;49.994;14.660;2023-04-28T03:38:20;97768.16;;;11.31;38.25
71915;BME280;60387;49.994;14.660;2023-04-28T03:40:53;97775.59;;;11.39;37.87
71915;BME280;60387;49.994;14.660;2023-04-28T03:43:26;97772.75;;;11.44;37.83
71915;BME280;60387;49.994;14.660;2023-04-28T03:46:00;97767.31;;;11.44;37.66
71915;BME280;60387;49.994;14.660;2023-04-28T03:48:33;97780.28;;;11.47;37.49
71915;BME280;60387;49.994;14.660;2023-04-28T03:51:06;97777.88;;;11.45;37.71
71915;BME280;60387;49.994;14.660;2023-04-28T03:53:40;97774.25;;;11.50;37.69
71915;BME280;60387;49.994;14.660;2023-04-28T03:56:13;97786.97;;;11.49;37.39
71915;BME280;60387;49.994;14.660;2023-04-28T03:58:46;97791.50;;;11.54;37.64
71915;BME280;60387;49.994;14.660;2023-04-28T04:01:19;97783.88;;;11.56;37.38
71915;BME280;60387;49.994;14.660;2023-04-28T04:03:53;97790.41;;;11.55;37.49
71915;BME280;60387;49.994;14.660;2023-04-28T04:06:26;97771.09;;;11.56;37.69
71915;BME280;60387;49.994;14.660;2023-04-28T04:08:59;97778.44;;;11.56;37.96
71915;BME280;60387;49.994;14.660;2023-04-28T04:11:33;97776.75;;;11.60;38.75
71915;BME280;60387;49.994;14.660;2023-04-28T04:14:06;97781.56;;;11.63;38.27
71915;BME280;60387;49.994;14.660;2023-04-28T04:16:39;97777.13;;;11.67;38.34
71915;BME280;60387;49.994;14.660;2023-04-28T04:19:12;97767.25;;;11.71;39.41
71915;BME280;60387;49.994;14.660;2023-04-28T04:21:46;97765.06;;;11.73;38.30
71915;BME280;60387;49.994;14.660;2023-04-28T04:24:19;97763.03;;;11.78;38.13
71915;BME280;60387;49.994;14.660;2023-04-28T04:26:52;97771.84;;;11.84;37.67
71915;BME280;60387;49.994;14.660;2023-04-28T04:29:26;97770.28;;;11.91;38.22
71915;BME280;60387;49.994;14.660;2023-04-28T04:31:59;97768.59;;;11.95;37.25
71915;BME280;60387;49.994;14.660;2023-04-28T04:34:32;97763.00;;;12.00;37.24
71915;BME280;60387;49.994;14.660;2023-04-28T04:37:05;97736.31;;;11.94;37.68
71915;BME280;60387;49.994;14.660;2023-04-28T04:39:39;97757.66;;;12.09;37.14
71915;BME280;60387;49.994;14.660;2023-04-28T04:42:12;97763.47;;;12.16;37.67
71915;BME280;60387;49.994;14.660;2023-04-28T04:44:45;97771.47;;;12.21;37.66
71915;BME280;60387;49.994;14.660;2023-04-28T04:47:18;97762.38;;;12.25;37.43
71915;BME280;60387;49.994;14.660;2023-04-28T04:49:52;97763.19;;;12.26;37.62
71915;BME280;60387;49.994;14.660;2023-04-28T04:52:25;97763.03;;;12.31;37.26
71915;BME280;60387;49.994;14.660;2023-04-28T04:54:58;97762.94;;;12.36;37.58
71915;BME280;60387;49.994;14.660;2023-04-28T04:57:32;97760.09;;;12.41;37.63
71915;BME280;60387;49.994;14.660;2023-04-28T05:00:05;97752.59;;;12.46;36.97
71915;BME280;60387;49.994;14.660;2023-04-28T05:02:39;97749.91;;;12.55;36.82
71915;BME280;60387;49.994;14.660;2023-04-28T05:05:12;97750.41;;;12.57;37.51
71915;BME280;60387;49.994;14.660;2023-04-28T05:07:45;97748.56;;;12.66;37.14
71915;BME280;60387;49.994;14.660;2023-04-28T05:10:19;97754.81;;;12.75;37.14
71915;BME280;60387;49.994;14.660;2023-04-28T05:12:52;97756.13;;;12.85;37.28
71915;BME280;60387;49.994;14.660;2023-04-28T05:15:25;97754.28;;;12.94;37.17
71915;BME280;60387;49.994;14.660;2023-04-28T05:17:58;97748.72;;;13.08;36.99
71915;BME280;60387;49.994;14.660;2023-04-28T05:20:32;97756.59;;;13.35;36.93
71915;BME280;60387;49.994;14.660;2023-04-28T05:23:05;97752.31;;;13.59;36.82
71915;BME280;60387;49.994;14.660;2023-04-28T05:25:38;97754.56;;;13.91;36.38
71915;BME280;60387;49.994;14.660;2023-04-28T05:28:12;97746.38;;;14.17;36.43
71915;BME280;60387;49.994;14.660;2023-04-28T05:30:45;97741.09;;;14.20;36.40
71915;BME280;60387;49.994;14.660;2023-04-28T05:33:18;97740.13;;;14.25;36.42
71915;BME280;60387;49.994;14.660;2023-04-28T05:35:52;97744.75;;;14.24;36.18
71915;BME280;60387;49.994;14.660;2023-04-28T05:38:25;97734.19;;;14.31;36.24
71915;BME280;60387;49.994;14.660;2023-04-28T05:41:00;97737.56;;;14.28;36.09
71915;BME280;60387;49.994;14.660;2023-04-28T05:43:33;97729.22;;;14.25;36.25
71915;BME280;60387;49.994;14.660;2023-04-28T05:46:06;97719.78;;;14.22;36.57
71915;BME280;60387;49.994;14.660;2023-04-28T05:48:40;97713.19;;;14.15;36.70
71915;BME280;60387;49.994;14.660;2023-04-28T05:51:13;97730.34;;;14.15;36.52
71915;BME280;60387;49.994;14.660;2023-04-28T05:53:46;97735.78;;;14.15;36.77
71915;BME280;60387;49.994;14.660;2023-04-28T05:56:19;97732.28;;;14.23;36.52
71915;BME280;60387;49.994;14.660;2023-04-28T05:58:53;97728.84;;;14.43;36.49
71915;BME280;60387;49.994;14.660;2023-04-28T06:01:26;97728.44;;;14.70;36.42
71915;BME280;60387;49.994;14.660;2023-04-28T06:03:59;97731.00;;;15.04;36.17
71915;BME280;60387;49.994;14.660;2023-04-28T06:06:33;97733.56;;;15.38;35.67
71915;BME280;60387;49.994;14.660;2023-04-28T06:09:06;97728.94;;;15.71;35.21
71915;BME280;60387;49.994;14.660;2023-04-28T06:11:39;97727.75;;;16.01;35.07
71915;BME280;60387;49.994;14.660;2023-04-28T06:14:13;97708.88;;;16.40;34.90
71915;BME280;60387;49.994;14.660;2023-04-28T06:16:46;97707.44;;;16.79;33.89
71915;BME280;60387;49.994;14.660;2023-04-28T06:19:19;97705.50;;;17.15;33.67
71915;BME280;60387;49.994;14.660;2023-04-28T06:21:52;97711.94;;;17.59;33.67
71915;BME280;60387;49.994;14.660;2023-04-28T06:24:26;97706.47;;;17.98;33.03
71915;BME280;60387;49.994;14.660;2023-04-28T06:26:59;97717.88;;;18.28;32.17
71915;BME280;60387;49.994;14.660;2023-04-28T06:29:32;97721.56;;;18.47;31.75
71915;BME280;60387;49.994;14.660;2023-04-28T06:32:06;97710.16;;;18.61;32.16
71915;BME280;60387;49.994;14.660;2023-04-28T06:34:39;97713.88;;;18.84;31.14
71915;BME280;60387;49.994;14.660;2023-04-28T06:37:12;97725.84;;;19.07;31.12
71915;BME280;60387;49.994;14.660;2023-04-28T06:39:45;97723.19;;;19.26;30.32
71915;BME280;60387;49.994;14.660;2023-04-28T06:42:19;97716.22;;;19.47;30.26
71915;BME280;60387;49.994;14.660;2023-04-28T06:44:52;97712.06;;;19.72;30.91
71915;BME280;60387;49.994;14.660;2023-04-28T06:47:25;97707.09;;;19.96;30.33
71915;BME280;60387;49.994;14.660;2023-04-28T06:49:58;97723.81;;;20.26;30.16
71915;BME280;60387;49.994;14.660;2023-04-28T06:52:32;97705.81;;;20.51;28.78
71915;BME280;60387;49.994;14.660;2023-04-28T06:55:08;97698.94;;;20.60;28.87
71915;BME280;60387;49.994;14.660;2023-04-28T06:57:42;97705.97;;;20.58;28.81
71915;BME280;60387;49.994;14.660;2023-04-28T07:00:16;97701.56;;;20.53;28.75
71915;BME280;60387;49.994;14.660;2023-04-28T07:02:49;97699.81;;;20.45;28.59
71915;BME280;60387;49.994;14.660;2023-04-28T07:05:22;97712.34;;;20.43;28.38
71915;BME280;60387;49.994;14.660;2023-04-28T07:07:56;97707.34;;;20.48;28.82
71915;BME280;60387;49.994;14.660;2023-04-28T07:10:29;97702.53;;;20.64;28.92
71915;BME280;60387;49.994;14.660;2023-04-28T07:13:02;97703.50;;;20.94;29.00
71915;BME280;60387;49.994;14.660;2023-04-28T07:15:35;97691.38;;;21.25;28.55
71915;BME280;60387;49.994;14.660;2023-04-28T07:18:09;97681.81;;;21.45;26.68
71915;BME280;60387;49.994;14.660;2023-04-28T07:20:42;97685.22;;;21.61;27.88
71915;BME280;60387;49.994;14.660;2023-04-28T07:23:15;97688.75;;;21.87;27.35
71915;BME280;60387;49.994;14.660;2023-04-28T07:25:48;97688.69;;;22.13;27.02
71915;BME280;60387;49.994;14.660;2023-04-28T07:28:22;97688.75;;;22.20;27.10
71915;BME280;60387;49.994;14.660;2023-04-28T07:30:55;97682.47;;;22.23;26.93
71915;BME280;60387;49.994;14.660;2023-04-28T07:33:28;97684.09;;;22.28;26.89
71915;BME280;60387;49.994;14.660;2023-04-28T07:36:02;97678.63;;;22.31;26.52
71915;BME280;60387;49.994;14.660;2023-04-28T07:38:35;97672.69;;;22.29;26.50
71915;BME280;60387;49.994;14.660;2023-04-28T07:41:08;97672.22;;;22.24;26.72
71915;BME280;60387;49.994;14.660;2023-04-28T07:43:42;97666.69;;;22.20;26.31
71915;BME280;60387;49.994;14.660;2023-04-28T07:46:15;97667.38;;;22.47;26.92
71915;BME280;60387;49.994;14.660;2023-04-28T07:48:48;97661.69;;;22.73;26.57
71915;BME280;60387;49.994;14.660;2023-04-28T07:51:21;97655.41;;;22.72;25.90
71915;BME280;60387;49.994;14.660;2023-04-28T07:53:55;97664.47;;;22.73;25.92
71915;BME280;60387;49.994;14.660;2023-04-28T07:56:29;97641.16;;;22.70;26.48
71915;BME280;60387;49.994;14.660;2023-04-28T07:59:02;97640.50;;;22.87;26.59
71915;BME280;60387;49.994;14.660;2023-04-28T08:01:35;97656.97;;;23.20;26.36
71915;BME280;60387;49.994;14.660;2023-04-28T08:04:08;97655.84;;;23.28;24.81
71915;BME280;60387;49.994;14.660;2023-04-28T08:06:42;97651.97;;;23.40;25.71
71915;BME280;60387;49.994;14.660;2023-04-28T08:09:15;97666.38;;;23.69;25.64
71915;BME280;60387;49.994;14.660;2023-04-28T08:11:48;97656.16;;;23.80;24.72
71915;BME280;60387;49.994;14.660;2023-04-28T08:14:22;97653.78;;;23.82;24.33
71915;BME280;60387;49.994;14.660;2023-04-28T08:16:55;97654.09;;;23.63;24.13
71915;BME280;60387;49.994;14.660;2023-04-28T08:19:29;97649.25;;;23.43;24.69
71915;BME280;60387;49.994;14.660;2023-04-28T08:22:02;97644.09;;;23.42;25.10
71915;BME280;60387;49.994;14.660;2023-04-28T08:24:35;97639.41;;;23.49;24.12
71915;BME280;60387;49.994;14.660;2023-04-28T08:27:09;97641.69;;;23.33;24.55
71915;BME280;60387;49.994;14.660;2023-04-28T08:29:42;97638.72;;;23.12;25.15
71915;BME280;60387;49.994;14.660;2023-04-28T08:32:15;97630.56;;;23.23;25.24
71915;BME280;60387;49.994;14.660;2023-04-28T08:34:49;97642.53;;;23.44;24.85
71915;BME280;60387;49.994;14.660;2023-04-28T08:37:22;97633.91;;;23.56;24.15
71915;BME280;60387;49.994;14.660;2023-04-28T08:39:55;97632.28;;;23.51;24.10
71915;BME280;60387;49.994;14.660;2023-04-28T08:42:29;97625.66;;;23.66;24.75
71915;BME280;60387;49.994;14.660;2023-04-28T08:45:04;97637.56;;;23.81;24.88
71915;BME280;60387;49.994;14.660;2023-04-28T08:47:38;97634.91;;;23.95;24.60
71915;BME280;60387;49.994;14.660;2023-04-28T08:50:13;97638.16;;;24.25;24.18
71915;BME280;60387;49.994;14.660;2023-04-28T08:52:46;97625.94;;;24.54;23.75
71915;BME280;60387;49.994;14.660;2023-04-28T08:55:20;97627.56;;;24.90;23.69
71915;BME280;60387;49.994;14.660;2023-04-28T08:57:54;97627.16;;;25.16;23.30
71915;BME280;60387;49.994;14.660;2023-04-28T09:00:28;97610.53;;;25.30;22.29
71915;BME280;60387;49.994;14.660;2023-04-28T09:03:01;97632.22;;;25.70;22.54
71915;BME280;60387;49.994;14.660;2023-04-28T09:05:35;97623.00;;;25.97;21.22
71915;BME280;60387;49.994;14.660;2023-04-28T09:08:08;97627.25;;;26.23;20.88
71915;BME280;60387;49.994;14.660;2023-04-28T09:10:42;97612.88;;;26.35;20.70
71915;BME280;60387;49.994;14.660;2023-04-28T09:13:24;97618.66;;;26.65;21.18
71915;BME280;60387;49.994;14.660;2023-04-28T09:15:58;97620.94;;;26.80;20.44
71915;BME280;60387;49.994;14.660;2023-04-28T09:18:32;97610.78;;;27.04;20.35
71915;BME280;60387;49.994;14.660;2023-04-28T09:21:07;97609.28;;;27.39;20.79
71915;BME280;60387;49.994;14.660;2023-04-28T09:23:47;97602.56;;;27.70;20.18
71915;BME280;60387;49.994;14.660;2023-04-28T09:26:20;97601.59;;;27.87;20.75
71915;BME280;60387;49.994;14.660;2023-04-28T09:29:10;97588.41;;;27.91;20.63
71915;BME280;60387;49.994;14.660;2023-04-28T09:31:44;97591.56;;;27.93;20.86
71915;BME280;60387;49.994;14.660;2023-04-28T09:34:17;97602.22;;;27.98;19.61
71915;BME280;60387;49.994;14.660;2023-04-28T09:36:50;97598.34;;;27.92;19.99
71915;BME280;60387;49.994;14.660;2023-04-28T09:39:29;97599.28;;;27.82;18.36
71915;BME280;60387;49.994;14.660;2023-04-28T09:42:02;97577.97;;;27.65;19.57
71915;BME280;60387;49.994;14.660;2023-04-28T09:44:36;97597.03;;;27.67;19.99
71915;BME280;60387;49.994;14.660;2023-04-28T09:47:19;97588.97;;;27.42;18.75
71915;BME280;60387;49.994;14.660;2023-04-28T09:49:57;97589.75;;;27.03;19.82
71915;BME280;60387;49.994;14.660;2023-04-28T09:52:32;97590.09;;;26.61;19.73
71915;BME280;60387;49.994;14.660;2023-04-28T09:55:06;97587.53;;;26.29;20.82
71915;BME280;60387;49.994;14.660;2023-04-28T09:57:43;97578.56;;;26.01;21.04
71915;BME280;60387;49.994;14.660;2023-04-28T10:00:17;97578.19;;;25.95;21.44
71915;BME280;60387;49.994;14.660;2023-04-28T10:02:51;97588.06;;;26.03;21.11
71915;BME280;60387;49.994;14.660;2023-04-28T10:05:25;97570.53;;;26.17;20.81
71915;BME280;60387;49.994;14.660;2023-04-28T10:08:00;97574.06;;;26.24;21.65
71915;BME280;60387;49.994;14.660;2023-04-28T10:10:36;97575.22;;;26.27;21.18
71915;BME280;60387;49.994;14.660;2023-04-28T10:13:10;97556.72;;;26.06;21.32
71915;BME280;60387;49.994;14.660;2023-04-28T10:15:44;97548.03;;;26.01;21.42
71915;BME280;60387;49.994;14.660;2023-04-28T10:18:17;97555.91;;;26.09;22.46
71915;BME280;60387;49.994;14.660;2023-04-28T10:20:58;97546.66;;;26.30;21.26
71915;BME280;60387;49.994;14.660;2023-04-28T10:29:34;97552.38;;;26.02;21.93
71915;BME280;60387;49.994;14.660;2023-04-28T10:32:20;97550.00;;;26.04;22.07
71915;BME280;60387;49.994;14.660;2023-04-28T10:38:13;97548.88;;;25.91;21.45
71915;BME280;60387;49.994;14.660;2023-04-28T10:40:52;97532.25;;;25.77;22.01
71915;BME280;60387;49.994;14.660;2023-04-28T10:46:06;97517.84;;;25.24;22.00
71915;BME280;60387;49.994;14.660;2023-04-28T10:56:26;97523.41;;;25.10;22.33
71915;BME280;60387;49.994;14.660;2023-04-28T10:58:59;97521.84;;;25.05;22.24
71915;BME280;60387;49.994;14.660;2023-04-28T11:01:32;97522.22;;;25.00;22.86
71915;BME280;60387;49.994;14.660;2023-04-28T11:04:07;97526.19;;;25.06;22.69
71915;BME280;60387;49.994;14.660;2023-04-28T11:06:42;97520.66;;;25.06;22.50
71915;BME280;60387;49.994;14.660;2023-04-28T11:14:38;97521.03;;;25.05;22.67
71915;BME280;60387;49.994;14.660;2023-04-28T11:17:11;97532.13;;;24.94;23.14
71915;BME280;60387;49.994;14.660;2023-04-28T11:19:45;97531.75;;;24.85;23.13
71915;BME280;60387;49.994;14.660;2023-04-28T11:22:20;97530.59;;;24.65;22.94
71915;BME280;60387;49.994;14.660;2023-04-28T11:24:55;97527.84;;;24.58;23.02
71915;BME280;60387;49.994;14.660;2023-04-28T11:27:31;97530.56;;;24.48;23.13
71915;BME280;60387;49.994;14.660;2023-04-28T11:30:19;97530.56;;;24.41;22.93
71915;BME280;60387;49.994;14.660;2023-04-28T11:32:52;97535.72;;;24.32;23.16
71915;BME280;60387;49.994;14.660;2023-04-28T11:35:39;97528.59;;;24.20;23.19
71915;BME280;60387;49.994;14.660;2023-04-28T11:38:13;97521.47;;;24.12;23.45
71915;BME280;60387;49.994;14.660;2023-04-28T11:40:56;97525.81;;;24.10;23.35
71915;BME280;60387;49.994;14.660;2023-04-28T11:43:30;97524.25;;;24.09;23.68
71915;BME280;60387;49.994;14.660;2023-04-28T11:46:03;97534.50;;;24.05;23.46
71915;BME280;60387;49.994;14.660;2023-04-28T11:48:39;97533.72;;;24.01;23.93
71915;BME280;60387;49.994;14.660;2023-04-28T11:51:33;97535.28;;;23.95;24.01
71915;BME280;60387;49.994;14.660;2023-04-28T11:54:06;97535.25;;;23.88;24.42
71915;BME280;60387;49.994;14.660;2023-04-28T11:56:41;97534.00;;;23.71;25.00
71915;BME280;60387;49.994;14.660;2023-04-28T11:59:14;97547.66;;;23.30;24.76
71915;BME280;60387;49.994;14.660;2023-04-28T12:01:55;97545.09;;;23.00;25.64
71915;BME280;60387;49.994;14.660;2023-04-28T12:04:33;97540.97;;;22.73;25.36
71915;BME280;60387;49.994;14.660;2023-04-28T12:09:42;97540.78;;;22.49;26.09
71915;BME280;60387;49.994;14.660;2023-04-28T12:12:29;97552.13;;;22.40;26.50
71915;BME280;60387;49.994;14.660;2023-04-28T12:15:04;97558.75;;;22.32;26.65
71915;BME280;60387;49.994;14.660;2023-04-28T12:17:39;97543.75;;;22.30;28.14
71915;BME280;60387;49.994;14.660;2023-04-28T12:20:32;97553.06;;;22.15;28.79
71915;BME280;60387;49.994;14.660;2023-04-28T12:23:06;97545.78;;;21.93;27.94
71915;BME280;60387;49.994;14.660;2023-04-28T12:25:43;97564.59;;;21.84;28.01
71915;BME280;60387;49.994;14.660;2023-04-28T12:28:16;97560.53;;;21.74;28.18
71915;BME280;60387;49.994;14.660;2023-04-28T12:31:02;97561.34;;;21.75;29.31
71915;BME280;60387;49.994;14.660;2023-04-28T12:33:36;97565.31;;;21.77;31.14
71915;BME280;60387;49.994;14.660;2023-04-28T12:36:09;97555.66;;;21.64;29.75
71915;BME280;60387;49.994;14.660;2023-04-28T12:38:48;97565.03;;;21.56;31.04
71915;BME280;60387;49.994;14.660;2023-04-28T12:41:22;97562.56;;;21.48;31.24
71915;BME280;60387;49.994;14.660;2023-04-28T12:43:55;97552.91;;;21.31;31.13
71915;BME280;60387;49.994;14.660;2023-04-28T12:46:28;97553.56;;;21.21;31.20
71915;BME280;60387;49.994;14.660;2023-04-28T12:49:02;97551.88;;;21.13;32.10
71915;BME280;60387;49.994;14.660;2023-04-28T12:51:36;97548.56;;;21.01;33.31
71915;BME280;60387;49.994;14.660;2023-04-28T12:54:09;97544.38;;;20.84;33.55
71915;BME280;60387;49.994;14.660;2023-04-28T12:56:42;97548.91;;;20.73;33.29
71915;BME280;60387;49.994;14.660;2023-04-28T12:59:16;97540.94;;;20.65;32.68
71915;BME280;60387;49.994;14.660;2023-04-28T13:01:49;97548.81;;;20.66;32.24
71915;BME280;60387;49.994;14.660;2023-04-28T13:04:23;97542.63;;;20.73;32.67
71915;BME280;60387;49.994;14.660;2023-04-28T13:06:57;97541.03;;;20.72;31.91
71915;BME280;60387;49.994;14.660;2023-04-28T13:09:30;97546.59;;;20.75;31.79
71915;BME280;60387;49.994;14.660;2023-04-28T13:12:04;97545.78;;;20.75;31.86
71915;BME280;60387;49.994;14.660;2023-04-28T13:14:37;97540.34;;;20.78;32.34
71915;BME280;60387;49.994;14.660;2023-04-28T13:17:10;97535.09;;;20.70;32.35
71915;BME280;60387;49.994;14.660;2023-04-28T13:19:44;97528.22;;;20.57;32.89
71915;BME280;60387;49.994;14.660;2023-04-28T13:22:17;97532.91;;;20.56;32.98
71915;BME280;60387;49.994;14.660;2023-04-28T13:24:50;97538.28;;;20.46;33.03
71915;BME280;60387;49.994;14.660;2023-04-28T13:27:23;97527.50;;;20.37;33.14
71915;BME280;60387;49.994;14.660;2023-04-28T13:29:57;97522.16;;;20.22;32.66
71915;BME280;60387;49.994;14.660;2023-04-28T13:32:30;97522.03;;;20.15;33.77
71915;BME280;60387;49.994;14.660;2023-04-28T13:35:03;97536.00;;;20.06;33.40
71915;BME280;60387;49.994;14.660;2023-04-28T13:37:37;97529.22;;;20.00;32.42
71915;BME280;60387;49.994;14.660;2023-04-28T13:40:10;97532.69;;;19.97;33.38
71915;BME280;60387;49.994;14.660;2023-04-28T13:42:44;97536.97;;;19.95;32.93
71915;BME280;60387;49.994;14.660;2023-04-28T13:45:17;97529.44;;;19.92;32.84
71915;BME280;60387;49.994;14.660;2023-04-28T13:47:50;97536.47;;;19.89;32.60
71915;BME280;60387;49.994;14.660;2023-04-28T13:50:23;97534.81;;;19.85;33.10
71915;BME280;60387;49.994;14.660;2023-04-28T13:52:57;97528.03;;;19.79;33.63